Time;durP1;ratioP1;P1;durP2;ratioP2;P2;SDS_P1;SDS_P2;PMS_P1;PMS_P2;Temp;Humidity;BMP_temperature;BMP_pressure;BME280_temperature;BME280_humidity;BME280_pressure;Samples;Min_cycle;Max_cycle;Signal;HPM_P1;HPM_P2
2021/08/11 00:00:40;;;;;;;7.30;5.72;;;;;;;13.90;100.00;101738.75;5151803;28;20057;-68
2021/08/11 00:03:11;;;;;;;8.55;5.57;;;;;;;13.88;100.00;101743.34;5153777;29;20113;-68
2021/08/11 00:05:42;;;;;;;7.93;7.03;;;;;;;13.89;100.00;101739.75;5153780;28;20039;-68
2021/08/11 00:08:14;;;;;;;7.72;6.55;;;;;;;13.84;100.00;101732.22;5153530;28;20031;-68
2021/08/11 00:10:45;;;;;;;7.28;5.75;;;;;;;13.78;100.00;101731.91;5150997;28;20031;-68
2021/08/11 00:13:16;;;;;;;7.47;6.38;;;;;;;13.75;100.00;101745.31;5154697;28;20145;-68
2021/08/11 00:15:47;;;;;;;7.50;6.53;;;;;;;13.76;100.00;101745.22;5154257;28;20027;-68
2021/08/11 00:18:19;;;;;;;8.60;6.20;;;;;;;13.75;100.00;101743.56;5153239;28;20051;-68
2021/08/11 00:20:50;;;;;;;6.65;5.95;;;;;;;13.80;100.00;101740.53;5151520;28;20122;-68
2021/08/11 00:23:24;;;;;;;8.02;5.88;;;;;;;13.78;100.00;101742.44;5153682;28;20030;-68
2021/08/11 00:25:56;;;;;;;7.22;6.50;;;;;;;13.78;100.00;101743.28;5152800;28;20035;-68
2021/08/11 00:28:28;;;;;;;6.70;6.00;;;;;;;13.75;100.00;101743.56;5152879;28;20031;-68
2021/08/11 00:31:00;;;;;;;7.93;6.88;;;;;;;13.71;100.00;101741.28;5153622;28;20079;-68
2021/08/11 00:33:32;;;;;;;9.13;6.47;;;;;;;13.75;100.00;101747.97;5152670;28;20500;-68
2021/08/11 00:36:04;;;;;;;6.53;5.80;;;;;;;13.73;100.00;101742.00;5152965;28;20031;-68
2021/08/11 00:38:35;;;;;;;10.05;6.90;;;;;;;13.72;100.00;101743.81;5153686;28;20031;-68
2021/08/11 00:41:06;;;;;;;9.05;6.72;;;;;;;13.72;100.00;101749.06;5154170;28;20122;-68
2021/08/11 00:43:37;;;;;;;8.68;6.45;;;;;;;13.70;100.00;101747.53;5151810;28;20494;-68
2021/08/11 00:46:09;;;;;;;9.13;7.15;;;;;;;13.70;100.00;101744.88;5153502;28;20106;-68
2021/08/11 00:48:40;;;;;;;11.25;7.82;;;;;;;13.71;100.00;101742.13;5153427;28;20272;-68
2021/08/11 00:51:13;;;;;;;10.15;7.60;;;;;;;13.68;100.00;101745.03;5154053;28;20513;-68
2021/08/11 00:53:45;;;;;;;10.35;8.25;;;;;;;13.69;100.00;101744.06;5152596;28;20405;-68
2021/08/11 00:56:19;;;;;;;11.02;8.55;;;;;;;13.69;100.00;101749.31;5152687;28;20035;-68
2021/08/11 00:58:52;;;;;;;9.98;8.27;;;;;;;13.67;100.00;101742.50;5151829;28;20038;-68
2021/08/11 01:01:25;;;;;;;13.05;8.82;;;;;;;13.72;100.00;101745.59;5152334;28;20027;-68
2021/08/11 01:03:58;;;;;;;13.13;9.98;;;;;;;13.71;100.00;101742.13;5151883;28;20703;-68
2021/08/11 01:06:30;;;;;;;13.40;8.75;;;;;;;13.72;100.00;101741.16;5152361;28;20350;-68
2021/08/11 01:09:01;;;;;;;13.07;9.77;;;;;;;13.73;100.00;101739.38;5152527;28;20560;-68
2021/08/11 01:11:33;;;;;;;12.32;9.07;;;;;;;13.74;100.00;101741.84;5152728;28;20069;-68
2021/08/11 01:14:05;;;;;;;16.75;10.10;;;;;;;13.73;100.00;101737.56;5153807;28;20046;-68
2021/08/11 01:16:36;;;;;;;17.67;10.35;;;;;;;13.75;100.00;101743.56;5152459;28;20464;-67
2021/08/11 01:19:08;;;;;;;27.70;12.48;;;;;;;13.73;100.00;101745.47;5152419;28;20119;-67
2021/08/11 01:22:04;;;;;;;36.08;12.60;;;;;;;13.80;100.00;101741.34;5149950;28;20034;-68
2021/08/11 01:24:47;;;;;;;26.83;12.95;;;;;;;13.80;100.00;101751.06;5150158;28;20576;-67
2021/08/11 01:27:34;;;;;;;39.72;12.85;;;;;;;13.67;100.00;101738.06;5153543;28;20023;-68
2021/08/11 01:30:32;;;;;;;33.38;12.20;;;;;;;13.81;100.00;101732.47;5148334;28;20054;-68
2021/08/11 01:33:54;;;;;;;26.58;11.30;;;;;;;13.80;100.00;101732.63;5151456;28;20066;-67
2021/08/11 01:36:32;;;;;;;21.42;10.73;;;;;;;13.72;100.00;101741.16;5128563;29;20537;-67
2021/08/11 01:39:05;;;;;;;21.05;10.73;;;;;;;13.67;100.00;101740.69;5128065;29;20398;-67
2021/08/11 01:41:38;;;;;;;;;;;;;;;13.96;100.00;101735.63;5143516;28;20043;-67
2021/08/11 01:44:10;;;;;;;14.23;9.63;;;;;;;13.65;100.00;101740.00;5151220;28;19995;-67
2021/08/11 01:46:43;;;;;;;21.58;10.43;;;;;;;13.57;100.00;101740.66;5151766;28;20043;-67
2021/08/11 01:49:15;;;;;;;18.17;11.38;;;;;;;13.52;100.00;101740.19;5151981;28;20078;-67
2021/08/11 01:51:47;;;;;;;17.38;10.85;;;;;;;13.52;100.00;101747.25;5151875;28;20126;-67
2021/08/11 01:54:20;;;;;;;15.15;11.18;;;;;;;13.47;100.00;101750.25;5151331;29;20019;-67
2021/08/11 01:56:51;;;;;;;13.03;10.70;;;;;;;13.49;100.00;101747.53;5151040;28;20405;-67
2021/08/11 01:59:23;;;;;;;12.90;10.75;;;;;;;13.52;100.00;101747.25;5152505;28;20027;-67
2021/08/11 02:01:55;;;;;;;14.07;10.95;;;;;;;13.56;100.00;101744.25;5149854;28;20580;-67
2021/08/11 02:04:27;;;;;;;15.13;12.10;;;;;;;13.57;100.00;101745.09;5151172;28;20055;-67
2021/08/11 02:06:59;;;;;;;11.90;10.30;;;;;;;13.57;100.00;101732.75;5150607;28;20094;-67
2021/08/11 02:09:31;;;;;;;15.85;11.85;;;;;;;13.60;100.00;101742.19;5151302;28;20327;-67
2021/08/11 02:12:04;;;;;;;18.67;11.95;;;;;;;13.62;100.00;101741.09;5151367;29;20485;-67
2021/08/11 02:14:40;;;;;;;19.75;11.35;;;;;;;13.67;100.00;101735.44;5149651;28;20022;-67
2021/08/11 02:17:11;;;;;;;22.70;9.90;;;;;;;13.62;100.00;101740.25;5150236;28;20037;-67
2021/08/11 02:19:42;;;;;;;17.33;8.93;;;;;;;13.60;100.00;101729.88;5151566;28;20035;-67
2021/08/11 02:22:14;;;;;;;12.68;8.80;;;;;;;13.59;100.00;101727.34;5152287;28;20580;-67
2021/08/11 02:24:45;;;;;;;13.10;7.40;;;;;;;13.60;100.00;101734.31;5150893;28;20031;-67
2021/08/11 02:27:20;;;;;;;9.30;7.35;;;;;;;13.55;100.00;101731.19;5151259;28;20040;-67
2021/08/11 02:29:58;;;;;;;9.55;7.10;;;;;;;13.59;100.00;101722.09;5150266;29;20050;-67
2021/08/11 02:32:35;;;;;;;14.93;7.13;;;;;;;13.58;100.00;101731.78;5151197;29;20039;-67
2021/08/11 02:35:16;;;;;;;7.97;6.63;;;;;;;13.57;100.00;101726.66;5151410;28;20081;-67
2021/08/11 02:37:58;;;;;;;7.18;6.50;;;;;;;13.53;100.00;101727.88;5151423;28;20466;-67
2021/08/11 02:40:41;;;;;;;6.50;5.90;;;;;;;13.50;100.00;101725.50;5150606;29;20035;-67
2021/08/11 02:43:20;;;;;;;6.95;6.25;;;;;;;13.43;100.00;101734.84;5150605;28;20039;-67
2021/08/11 02:46:04;;;;;;;6.60;6.00;;;;;;;13.52;100.00;101734.09;5151597;28;20067;-66
2021/08/11 02:48:36;;;;;;;5.93;5.32;;;;;;;13.47;100.00;101723.09;5151670;28;20595;-67
2021/08/11 02:51:10;;;;;;;7.43;6.73;;;;;;;13.49;100.00;101726.47;5150668;28;20081;-66
2021/08/11 02:53:41;;;;;;;;;;;;;;;13.78;100.00;101737.16;5149435;28;20090;-66
2021/08/11 02:56:14;;;;;;;15.50;8.75;;;;;;;13.60;100.00;101743.03;5151868;28;20369;-67
2021/08/11 02:58:46;;;;;;;23.77;8.32;;;;;;;13.51;100.00;101735.06;5150526;29;20047;-66
2021/08/11 03:01:17;;;;;;;19.67;8.93;;;;;;;13.55;100.00;101736.47;5150052;28;20019;-66
2021/08/11 03:03:49;;;;;;;24.73;8.25;;;;;;;13.53;100.00;101735.78;5151444;28;20263;-67
2021/08/11 03:06:21;;;;;;;17.08;7.78;;;;;;;13.48;100.00;101732.66;5150367;28;20425;-67
2021/08/11 03:08:52;;;;;;;11.98;7.57;;;;;;;13.47;100.00;101745.00;5150815;28;20023;-67
2021/08/11 03:11:24;;;;;;;16.80;7.63;;;;;;;13.46;100.00;101739.88;5151288;28;20098;-66
2021/08/11 03:13:55;;;;;;;13.27;7.63;;;;;;;13.46;100.00;101743.34;5150835;28;20686;-66
2021/08/11 03:16:28;;;;;;;18.08;7.05;;;;;;;13.42;100.00;101730.56;5150231;28;20478;-67
2021/08/11 03:18:59;;;;;;;21.40;6.85;;;;;;;13.34;100.00;101726.75;5151086;28;20332;-66
2021/08/11 03:21:31;;;;;;;8.45;6.65;;;;;;;13.44;100.00;101739.16;5150647;28;20485;-66
2021/08/11 03:24:03;;;;;;;9.77;7.53;;;;;;;13.40;100.00;101741.19;5150810;28;20031;-67
2021/08/11 03:26:34;;;;;;;10.77;7.10;;;;;;;13.37;100.00;101742.31;5150288;28;20031;-66
2021/08/11 03:29:06;;;;;;;13.27;7.50;;;;;;;13.33;100.00;101738.25;5150984;29;20193;-66
2021/08/11 03:31:37;;;;;;;8.80;7.22;;;;;;;13.34;100.00;101737.28;5150461;28;20055;-66
2021/08/11 03:34:08;;;;;;;7.50;6.80;;;;;;;13.35;100.00;101738.94;5151173;28;20023;-67
2021/08/11 03:36:40;;;;;;;7.03;6.43;;;;;;;13.33;100.00;101733.00;5150262;28;20069;-67
2021/08/11 03:39:11;;;;;;;6.40;5.88;;;;;;;13.31;100.00;101728.81;5150220;28;20030;-67
2021/08/11 03:41:43;;;;;;;6.47;5.88;;;;;;;13.30;100.00;101733.25;5150325;28;20042;-66
2021/08/11 03:44:14;;;;;;;6.75;6.15;;;;;;;13.30;100.00;101721.88;5151219;28;21214;-67
2021/08/11 03:46:46;;;;;;;6.47;5.88;;;;;;;13.27;100.00;101720.34;5151307;28;20035;-66
2021/08/11 03:49:19;;;;;;;6.90;6.30;;;;;;;13.28;100.00;101729.06;5149563;28;20062;-67
2021/08/11 03:51:50;;;;;;;6.97;6.07;;;;;;;13.27;100.00;101735.28;5150263;28;20058;-66
2021/08/11 03:54:22;;;;;;;7.40;6.35;;;;;;;13.27;100.00;101727.41;5151362;28;20653;-67
2021/08/11 03:56:53;;;;;;;8.43;6.70;;;;;;;13.27;100.00;101730.03;5154532;28;20023;-66
2021/08/11 03:59:24;;;;;;;10.15;8.05;;;;;;;13.29;100.00;101749.13;5153445;28;20239;-66
2021/08/11 04:01:56;;;;;;;18.10;9.65;;;;;;;13.31;100.00;101748.06;5152084;28;20039;-66
2021/08/11 04:04:27;;;;;;;14.80;8.70;;;;;;;13.32;100.00;101743.63;5153105;28;20019;-67
2021/08/11 04:06:58;;;;;;;13.88;8.38;;;;;;;13.25;100.00;101748.56;5151234;28;20484;-67
2021/08/11 04:09:29;;;;;;;14.38;7.70;;;;;;;13.24;100.00;101746.88;5154244;28;20035;-67
2021/08/11 04:12:01;;;;;;;16.73;7.15;;;;;;;13.28;100.00;101758.00;5153362;28;20031;-66
2021/08/11 04:14:32;;;;;;;11.10;7.53;;;;;;;13.24;100.00;101748.69;5153049;28;20459;-66
2021/08/11 04:17:03;;;;;;;10.48;7.43;;;;;;;13.25;100.00;101748.56;5151972;28;20070;-67
2021/08/11 04:19:35;;;;;;;8.30;7.47;;;;;;;13.24;100.00;101753.94;5152773;28;20042;-66
2021/08/11 04:22:06;;;;;;;7.78;6.80;;;;;;;13.27;100.00;101757.19;5154905;28;20087;-66
2021/08/11 04:24:37;;;;;;;11.98;7.18;;;;;;;13.27;100.00;101757.19;5152853;28;20348;-66
2021/08/11 04:27:09;;;;;;;12.05;6.78;;;;;;;13.27;100.00;101749.28;5152715;28;20031;-66
2021/08/11 04:29:40;;;;;;;12.38;6.88;;;;;;;13.25;100.00;101743.28;5153227;28;20041;-67
2021/08/11 04:32:11;;;;;;;10.00;7.65;;;;;;;13.26;100.00;101737.09;5153556;28;20070;-66
2021/08/11 04:34:44;;;;;;;8.63;7.50;;;;;;;13.27;100.00;101745.81;5152819;28;20050;-66
2021/08/11 04:37:16;;;;;;;8.80;7.40;;;;;;;13.27;100.00;101753.72;5152869;28;20101;-67
2021/08/11 04:39:48;;;;;;;13.95;7.70;;;;;;;13.28;100.00;101752.75;5152378;28;20039;-66
2021/08/11 04:42:20;;;;;;;10.90;7.05;;;;;;;13.31;100.00;101760.41;5153293;28;20035;-67
2021/08/11 04:44:51;;;;;;;9.32;7.60;;;;;;;13.32;100.00;101757.63;5153987;29;20043;-67
2021/08/11 04:47:22;;;;;;;8.60;7.15;;;;;;;13.35;100.00;101761.81;5153337;28;20343;-66
2021/08/11 04:49:54;;;;;;;7.82;7.13;;;;;;;13.31;100.00;101763.84;5152697;28;20473;-66
2021/08/11 04:52:25;;;;;;;8.35;7.15;;;;;;;13.35;100.00;101765.28;5153544;28;20485;-66
2021/08/11 04:54:56;;;;;;;9.75;7.13;;;;;;;13.39;100.00;101769.31;5153455;28;20028;-66
2021/08/11 04:57:28;;;;;;;8.75;7.95;;;;;;;13.40;100.00;101767.53;5152945;28;20035;-66
2021/08/11 05:00:00;;;;;;;8.25;7.45;;;;;;;13.43;100.00;101775.16;5151802;28;20070;-67
2021/08/11 05:02:32;;;;;;;8.93;7.78;;;;;;;13.43;100.00;101782.25;5152987;28;20026;-67
2021/08/11 05:05:06;;;;;;;8.93;8.03;;;;;;;13.45;100.00;101770.63;5152845;28;20460;-68
2021/08/11 05:07:37;;;;;;;8.88;8.07;;;;;;;13.46;100.00;101782.00;5151899;28;20042;-67
2021/08/11 05:10:10;;;;;;;8.32;7.53;;;;;;;13.47;100.00;101784.50;5151635;28;20027;-67
2021/08/11 05:12:41;;;;;;;8.13;7.38;;;;;;;13.50;100.00;101786.03;5150390;28;20038;-68
2021/08/11 05:15:13;;;;;;;8.38;7.55;;;;;;;13.53;100.00;101785.78;5151384;28;20466;-68
2021/08/11 05:17:44;;;;;;;8.00;7.20;;;;;;;13.59;100.00;101790.53;5149394;29;20081;-68
2021/08/11 05:20:16;;;;;;;8.95;7.68;;;;;;;13.62;100.00;101790.28;5151115;28;20409;-67
2021/08/11 05:22:47;;;;;;;8.60;7.80;;;;;;;13.64;100.00;101780.47;5151426;28;20082;-68
2021/08/11 05:25:19;;;;;;;8.30;7.50;;;;;;;13.66;100.00;101785.59;5152087;28;20031;-67
2021/08/11 05:27:50;;;;;;;8.25;7.45;;;;;;;13.71;100.00;101784.25;5151877;28;20034;-68
2021/08/11 05:30:21;;;;;;;8.48;7.68;;;;;;;13.75;100.00;101788.31;5152492;28;20051;-68
2021/08/11 05:32:52;;;;;;;9.38;8.48;;;;;;;13.80;100.00;101787.94;5151632;28;20023;-68
2021/08/11 05:35:24;;;;;;;11.25;8.27;;;;;;;13.83;100.00;101793.78;5150018;28;20118;-67
2021/08/11 05:37:55;;;;;;;9.27;7.80;;;;;;;13.90;100.00;101795.88;5151694;28;20041;-67
2021/08/11 05:40:26;;;;;;;13.10;9.32;;;;;;;13.96;100.00;101793.59;5152100;28;20035;-67
2021/08/11 05:42:58;;;;;;;10.95;8.77;;;;;;;14.01;100.00;101803.72;5151649;29;20369;-68
2021/08/11 05:45:30;;;;;;;10.15;8.57;;;;;;;14.04;100.00;101800.84;5151582;28;20023;-67
2021/08/11 05:48:01;;;;;;;10.52;9.05;;;;;;;14.07;100.00;101803.22;5152102;28;20102;-67
2021/08/11 05:50:32;;;;;;;10.85;9.43;;;;;;;14.11;100.00;101807.25;5151330;28;20063;-67
2021/08/11 05:53:04;;;;;;;12.48;9.35;;;;;;;14.15;100.00;101808.69;5149314;28;20536;-67
2021/08/11 05:55:35;;;;;;;10.35;9.02;;;;;;;14.18;100.00;101808.44;5147081;28;20031;-66
2021/08/11 05:58:09;;;;;;;13.10;9.38;;;;;;;14.20;100.00;101814.38;5151206;28;20019;-67
2021/08/11 06:00:40;;;;;;;14.43;10.25;;;;;;;14.23;100.00;101813.28;5143041;28;20378;-67
2021/08/11 06:03:11;;;;;;;12.82;10.15;;;;;;;14.26;100.00;101808.59;5151796;28;20038;-67
2021/08/11 06:05:43;;;;;;;13.00;10.35;;;;;;;14.32;100.00;101802.81;5151546;28;20370;-66
2021/08/11 06:08:14;;;;;;;13.48;10.73;;;;;;;14.38;100.00;101811.16;5146459;28;20118;-67
2021/08/11 06:10:45;;;;;;;14.27;11.15;;;;;;;14.42;100.00;101813.41;5145615;28;20031;-67
2021/08/11 06:13:16;;;;;;;16.02;12.18;;;;;;;14.48;100.00;101819.97;5148726;28;20027;-67
2021/08/11 06:15:48;;;;;;;13.20;10.85;;;;;;;14.53;100.00;101828.34;5150850;28;20070;-67
2021/08/11 06:18:19;;;;;;;14.95;11.80;;;;;;;14.58;100.00;101831.41;5143685;28;20109;-67
2021/08/11 06:20:53;;;;;;;16.75;12.57;;;;;;;14.63;100.00;101833.66;5144817;28;20118;-67
2021/08/11 06:23:24;;;;;;;16.55;12.82;;;;;;;14.72;100.00;101838.97;5145639;28;20027;-67
2021/08/11 06:25:56;;;;;;;15.57;12.68;;;;;;;14.83;100.00;101833.59;5144644;28;20425;-67
2021/08/11 06:28:27;;;;;;;17.25;13.77;;;;;;;14.89;100.00;101845.44;5147469;28;20043;-67
2021/08/11 06:30:58;;;;;;;14.48;12.93;;;;;;;14.97;100.00;101844.75;5149269;28;20039;-67
2021/08/11 06:33:30;;;;;;;14.50;12.52;;;;;;;15.06;100.00;101841.31;5148169;28;20031;-67
2021/08/11 06:36:01;;;;;;;15.68;13.38;;;;;;;15.14;100.00;101841.44;5148377;28;20019;-67
2021/08/11 06:38:32;;;;;;;15.00;12.68;;;;;;;15.22;100.00;101851.34;5149291;28;20492;-67
2021/08/11 06:41:04;;;;;;;15.23;13.32;;;;;;;15.31;100.00;101854.00;5151420;28;20039;-67
2021/08/11 06:43:35;;;;;;;16.55;13.73;;;;;;;15.37;100.00;101851.78;5145171;28;20035;-66
2021/08/11 06:46:06;;;;;;;15.13;13.48;;;;;;;15.48;100.00;101855.13;5146475;29;20027;-67
2021/08/11 06:48:38;;;;;;;14.57;12.63;;;;;;;15.61;100.00;101849.59;5146798;28;20513;-67
2021/08/11 06:51:11;;;;;;;17.73;14.65;;;;;;;15.77;100.00;101855.19;5147721;28;20042;-67
2021/08/11 06:53:42;;;;;;;16.25;13.50;;;;;;;15.91;100.00;101858.38;5147051;28;20034;-67
2021/08/11 06:56:13;;;;;;;15.48;13.77;;;;;;;16.01;100.00;101856.56;5145548;28;20028;-67
2021/08/11 06:58:44;;;;;;;16.27;14.35;;;;;;;16.12;100.00;101855.56;5151128;28;20031;-67
2021/08/11 07:01:16;;;;;;;16.23;14.45;;;;;;;16.21;100.00;101860.84;5146011;28;20035;-67
2021/08/11 07:03:47;;;;;;;14.95;13.45;;;;;;;16.26;100.00;101857.78;5151114;28;20039;-67
2021/08/11 07:06:18;;;;;;;14.73;12.95;;;;;;;16.34;100.00;101863.19;5148054;28;20015;-67
2021/08/11 07:08:50;;;;;;;15.23;13.63;;;;;;;16.35;100.00;101853.44;5148247;28;20046;-67
2021/08/11 07:11:21;;;;;;;16.38;13.93;;;;;;;16.43;100.00;101864.97;5147921;28;20111;-67
2021/08/11 07:13:52;;;;;;;16.50;14.80;;;;;;;16.53;100.00;101860.47;5149101;28;20133;-67
2021/08/11 07:16:24;;;;;;;17.42;14.48;;;;;;;16.58;100.00;101869.78;5148803;28;20031;-67
2021/08/11 07:18:55;;;;;;;17.83;13.88;;;;;;;16.66;100.00;101857.50;5145700;28;20576;-67
2021/08/11 07:21:26;;;;;;;16.52;13.88;;;;;;;16.64;100.00;101859.47;5147055;28;20187;-67
2021/08/11 07:23:57;;;;;;;14.30;12.50;;;;;;;16.75;100.00;101859.31;5149953;28;20061;-67
2021/08/11 07:26:29;;;;;;;18.33;14.95;;;;;;;16.81;100.00;101865.00;5149503;28;20035;-67
2021/08/11 07:29:00;;;;;;;17.30;14.32;;;;;;;16.94;100.00;101866.34;5150674;28;20035;-67
2021/08/11 07:31:31;;;;;;;16.92;14.88;;;;;;;16.98;100.00;101861.59;5150320;28;20078;-67
2021/08/11 07:34:03;;;;;;;17.33;14.30;;;;;;;17.03;100.00;101861.97;5152572;29;20125;-67
2021/08/11 07:36:34;;;;;;;20.50;14.95;;;;;;;17.13;100.00;101862.75;5155228;28;20027;-67
2021/08/11 07:39:06;;;;;;;18.27;15.13;;;;;;;17.18;100.00;101862.31;5154032;28;20073;-67
2021/08/11 07:41:38;;;;;;;19.50;15.02;;;;;;;17.25;100.00;101850.16;5150961;28;20095;-67
2021/08/11 07:44:09;;;;;;;17.73;14.15;;;;;;;17.34;100.00;101853.72;5154393;28;20311;-67
2021/08/11 07:46:40;;;;;;;18.83;16.30;;;;;;;17.40;100.00;101850.47;5149153;28;20147;-67
2021/08/11 07:49:12;;;;;;;18.70;15.35;;;;;;;17.51;100.00;101853.72;5153892;28;20073;-67
2021/08/11 07:51:43;;;;;;;17.52;14.63;;;;;;;17.66;100.00;101854.03;5151852;28;20497;-67
2021/08/11 07:54:14;;;;;;;16.55;14.48;;;;;;;17.77;100.00;101858.31;5152814;28;20148;-67
2021/08/11 07:56:46;;;;;;;15.70;13.48;;;;;;;17.88;100.00;101854.56;5153345;28;20125;-68
2021/08/11 07:59:17;;;;;;;23.73;14.27;;;;;;;18.05;100.00;101855.53;5151913;28;20031;-68
2021/08/11 08:01:48;;;;;;;16.05;14.10;;;;;;;18.06;100.00;101859.84;5152061;28;20054;-67
2021/08/11 08:04:19;;;;;;;17.35;13.73;;;;;;;18.15;100.00;101856.28;5151867;28;20058;-68
2021/08/11 08:06:51;;;;;;;16.65;14.77;;;;;;;18.30;100.00;101856.56;5151820;28;20039;-68
2021/08/11 08:09:22;;;;;;;18.33;14.23;;;;;;;18.47;100.00;101861.78;5153249;28;20023;-67
2021/08/11 08:11:53;;;;;;;15.60;14.00;;;;;;;18.62;100.00;101866.50;5151947;28;20515;-68
2021/08/11 08:14:25;;;;;;;15.75;14.07;;;;;;;18.78;100.00;101863.97;5150899;28;20481;-68
2021/08/11 08:16:56;;;;;;;17.10;15.35;;;;;;;18.90;100.00;101860.06;5152488;28;20616;-68
2021/08/11 08:19:27;;;;;;;17.07;14.60;;;;;;;19.04;100.00;101853.28;5153141;28;20031;-68
2021/08/11 08:21:59;;;;;;;18.67;16.63;;;;;;;19.17;100.00;101860.81;5152704;28;20054;-68
2021/08/11 08:24:32;;;;;;;16.67;14.07;;;;;;;19.47;100.00;101854.03;5153134;28;20474;-68
2021/08/11 08:27:04;;;;;;;17.00;14.13;;;;;;;19.48;100.00;101855.72;5152880;28;20393;-68
2021/08/11 08:29:35;;;;;;;16.70;14.97;;;;;;;19.54;100.00;101848.91;5152675;28;20034;-68
2021/08/11 08:32:07;;;;;;;16.37;14.67;;;;;;;19.51;100.00;101844.78;5152920;28;20086;-68
2021/08/11 08:34:38;;;;;;;16.57;14.83;;;;;;;19.68;100.00;101849.13;5153075;28;21055;-68
2021/08/11 08:37:09;;;;;;;18.20;16.40;;;;;;;19.71;100.00;101861.25;5153143;28;20504;-68
2021/08/11 08:39:40;;;;;;;16.30;14.70;;;;;;;19.71;100.00;101857.78;5152758;28;20027;-68
2021/08/11 08:42:12;;;;;;;14.30;12.80;;;;;;;19.74;100.00;101855.63;5148297;28;20733;-68
2021/08/11 08:44:43;;;;;;;14.93;12.93;;;;;;;19.68;100.00;101858.94;5154903;28;20381;-68
2021/08/11 08:47:16;;;;;;;14.53;12.27;;;;;;;19.60;100.00;101858.91;5152855;28;20055;-68
2021/08/11 08:49:48;;;;;;;14.10;12.48;;;;;;;19.55;100.00;101856.72;5152493;28;20034;-68
2021/08/11 08:52:20;;;;;;;20.17;14.73;;;;;;;19.64;100.00;101865.56;5153793;28;20031;-68
2021/08/11 08:54:56;;;;;;;16.57;14.43;;;;;;;19.74;100.00;101868.09;5153661;28;20035;-68
2021/08/11 08:57:27;;;;;;;16.77;14.48;;;;;;;19.86;100.00;101866.75;5153389;29;20035;-68
2021/08/11 08:59:58;;;;;;;19.50;15.20;;;;;;;19.96;100.00;101870.06;5151756;28;20035;-68
2021/08/11 09:02:30;;;;;;;16.83;12.73;;;;;;;20.08;100.00;101865.25;5152091;28;20190;-68
2021/08/11 09:05:01;;;;;;;15.27;12.10;;;;;;;20.28;100.00;101863.06;5152102;29;20031;-68
2021/08/11 09:07:33;;;;;;;16.10;12.80;;;;;;;20.39;100.00;101873.34;5151565;28;20393;-68
2021/08/11 09:10:23;;;;;;;16.07;12.67;;;;;;;20.68;100.00;101874.63;5150138;28;20478;-68
2021/08/11 09:12:58;;;;;;;17.60;11.52;;;;;;;20.60;100.00;101876.31;5150800;29;20109;-68
2021/08/11 09:15:49;;;;;;;17.98;11.80;;;;;;;20.74;100.00;101876.63;5150627;28;20063;-68
2021/08/11 09:18:27;;;;;;;13.57;11.27;;;;;;;20.83;100.00;101872.91;5165827;28;20031;-68
2021/08/11 09:20:58;;;;;;;14.27;11.63;;;;;;;20.82;97.97;101871.25;5151331;28;20037;-68
2021/08/11 09:23:41;;;;;;;11.13;9.17;;;;;;;21.00;97.18;101871.84;5152253;28;20024;-68
2021/08/11 09:26:15;;;;;;;9.80;8.75;;;;;;;20.83;93.27;101868.41;5149314;28;20043;-68
2021/08/11 09:28:47;;;;;;;13.65;10.52;;;;;;;20.88;93.53;101862.59;5150641;28;20035;-68
2021/08/11 09:31:32;;;;;;;;;;;;;;;21.24;96.52;101876.22;5148046;29;20444;-68
2021/08/11 09:34:07;;;;;;;10.70;9.57;;;;;;;21.24;93.39;101862.06;5150430;28;19918;-68
2021/08/11 09:36:54;;;;;;;10.48;9.38;;;;;;;21.28;91.76;101866.84;5149280;28;20532;-68
2021/08/11 09:39:32;;;;;;;10.82;9.73;;;;;;;21.48;91.22;101861.09;5150119;28;20432;-68
2021/08/11 09:42:05;;;;;;;12.10;9.88;;;;;;;21.48;90.45;101863.75;5151736;29;20029;-68
2021/08/11 09:44:38;;;;;;;10.32;9.00;;;;;;;21.66;91.72;101861.63;5150815;28;20094;-68
2021/08/11 09:47:16;;;;;;;9.45;8.50;;;;;;;21.85;91.24;101861.13;5152382;28;20501;-68
2021/08/11 09:50:02;;;;;;;9.48;8.57;;;;;;;22.11;91.16;101871.41;5152029;28;20118;-68
2021/08/11 09:52:47;;;;;;;7.10;6.38;;;;;;;22.29;90.11;101872.97;5148302;28;20090;-69
2021/08/11 09:55:19;;;;;;;7.07;6.35;;;;;;;22.17;84.85;101874.44;5149911;28;20031;-68
2021/08/11 09:57:50;;;;;;;7.93;5.85;;;;;;;22.21;86.34;101873.06;5152592;28;20374;-68
2021/08/11 10:00:21;;;;;;;6.90;5.07;;;;;;;22.28;85.32;101869.47;5149199;28;20074;-68
2021/08/11 10:03:03;;;;;;;5.83;5.23;;;;;;;22.41;88.45;101865.34;5152431;28;20057;-68
2021/08/11 10:05:36;;;;;;;7.25;5.93;;;;;;;22.25;84.57;101871.69;5152082;28;20035;-68
2021/08/11 10:08:07;;;;;;;4.78;4.28;;;;;;;22.35;83.38;101877.59;5149506;28;20035;-68
2021/08/11 10:10:49;;;;;;;4.73;4.13;;;;;;;22.34;82.76;101874.06;5149382;28;20033;-68
2021/08/11 10:13:22;;;;;;;4.78;3.97;;;;;;;22.12;83.69;101882.91;5151316;28;20299;-68
2021/08/11 10:15:54;;;;;;;5.32;3.83;;;;;;;22.08;83.62;101884.28;5150529;28;20042;-70
2021/08/11 10:18:27;;;;;;;5.37;3.67;;;;;;;22.08;82.33;101886.97;5142392;29;20027;-68
2021/08/11 10:21:02;;;;;;;5.30;3.72;;;;;;;22.04;82.59;101883.81;5140740;29;20038;-68
2021/08/11 10:23:34;;;;;;;5.22;3.80;;;;;;;22.00;81.88;101884.38;5146745;28;20091;-68
2021/08/11 10:26:07;;;;;;;4.37;3.50;;;;;;;22.02;82.85;101877.84;5143338;28;20117;-68
2021/08/11 10:28:39;;;;;;;5.57;4.05;;;;;;;22.02;82.21;101882.38;5164489;28;20030;-67
2021/08/11 10:31:11;;;;;;;5.18;3.55;;;;;;;22.21;83.57;101886.41;5148097;28;20401;-67
2021/08/11 10:33:47;;;;;;;6.00;4.60;;;;;;;22.51;83.68;101880.06;5145733;28;20034;-67
2021/08/11 10:36:19;;;;;;;6.20;4.70;;;;;;;22.75;81.61;101873.63;5150117;29;20329;-67
2021/08/11 10:38:52;;;;;;;5.35;4.30;;;;;;;23.01;81.62;101875.81;5144870;28;20035;-67
2021/08/11 10:41:31;;;;;;;5.45;3.63;;;;;;;23.07;80.81;101871.59;5147272;28;20096;-68
2021/08/11 10:44:05;;;;;;;4.20;3.20;;;;;;;23.13;81.33;101880.69;5149363;28;20037;-68
2021/08/11 10:46:39;;;;;;;4.90;3.90;;;;;;;23.19;80.59;101879.94;5149723;28;20058;-68
2021/08/11 10:49:17;;;;;;;5.88;4.47;;;;;;;23.22;80.02;101879.56;5149814;28;20023;-68
2021/08/11 10:51:50;;;;;;;5.70;3.53;;;;;;;23.16;80.03;101883.00;5148231;28;20090;-68
2021/08/11 10:54:21;;;;;;;4.10;3.08;;;;;;;23.11;79.90;101878.22;5149328;28;20023;-68
2021/08/11 10:56:55;;;;;;;4.23;3.20;;;;;;;23.03;79.28;101891.66;5144666;29;20126;-68
2021/08/11 10:59:28;;;;;;;4.82;3.53;;;;;;;22.97;79.13;101893.25;5149632;28;20027;-68
2021/08/11 11:01:59;;;;;;;4.88;3.08;;;;;;;22.80;81.02;101883.75;5149631;28;20043;-68
2021/08/11 11:04:42;;;;;;;3.67;2.50;;;;;;;22.92;78.97;101892.13;5149488;28;20025;-69
2021/08/11 11:07:18;;;;;;;4.20;3.05;;;;;;;22.83;77.88;101888.72;5146918;28;20043;-68
2021/08/11 11:10:26;;;;;;;4.22;3.03;;;;;;;23.21;77.67;101891.28;5155341;28;20466;-69
2021/08/11 11:12:57;;;;;;;4.32;2.90;;;;;;;23.31;76.78;101884.59;5154141;28;20579;-68
2021/08/11 11:15:40;;;;;;;4.23;2.60;;;;;;;23.33;79.14;101884.41;5151918;28;20129;-68
2021/08/11 11:18:23;;;;;;;3.80;2.80;;;;;;;23.18;75.78;101886.28;5150404;28;20031;-68
2021/08/11 11:20:58;;;;;;;;;;;;;;;23.59;78.10;101893.72;5150931;28;20035;-69
2021/08/11 11:23:43;;;;;;;4.22;2.80;;;;;;;23.73;77.89;101887.53;5150286;28;19914;-68
2021/08/11 11:26:16;;;;;;;4.28;3.00;;;;;;;23.75;73.06;101882.81;5154829;28;20027;-69
2021/08/11 11:29:06;;;;;;;4.32;2.83;;;;;;;24.11;73.21;101884.56;5152645;28;20047;-68
2021/08/11 11:31:49;;;;;;;4.45;2.92;;;;;;;24.30;73.27;101881.19;5151196;28;20055;-68
2021/08/11 11:34:23;;;;;;;;;;;;;;;24.66;74.04;101877.50;5155076;28;20375;-68
2021/08/11 11:36:54;;;;;;;4.00;2.63;;;;;;;24.14;69.91;101884.19;5153130;28;19950;-69
2021/08/11 11:39:29;;;;;;;4.73;3.17;;;;;;;24.43;73.14;101891.19;5152347;28;20127;-68